sensor_id;sensor_type;location;lat;lon;timestamp;P1;durP1;ratioP1;P2;durP2;ratioP2
11008;SDS011;5557;51.670;7.788;2023-07-13T00:02:23;8.77;;;3.37;;
11008;SDS011;5557;51.670;7.788;2023-07-13T00:04:51;8.50;;;3.07;;
11008;SDS011;5557;51.670;7.788;2023-07-13T00:07:18;6.07;;;2.50;;
11008;SDS011;5557;51.670;7.788;2023-07-13T00:09:49;7.47;;;2.70;;
11008;SDS011;5557;51.670;7.788;2023-07-13T00:12:22;4.43;;;2.97;;
11008;SDS011;5557;51.670;7.788;2023-07-13T00:14:52;4.40;;;2.80;;
11008;SDS011;5557;51.670;7.788;2023-07-13T00:17:19;3.00;;;2.40;;
11008;SDS011;5557;51.670;7.788;2023-07-13T00:19:48;5.43;;;3.10;;
11008;SDS011;5557;51.670;7.788;2023-07-13T00:22:15;3.70;;;2.53;;
11008;SDS011;5557;51.670;7.788;2023-07-13T00:24:45;3.70;;;2.53;;
11008;SDS011;5557;51.670;7.788;2023-07-13T00:27:13;3.23;;;2.30;;
11008;SDS011;5557;51.670;7.788;2023-07-13T00:29:41;7.07;;;2.40;;
11008;SDS011;5557;51.670;7.788;2023-07-13T00:32:09;4.60;;;2.73;;
11008;SDS011;5557;51.670;7.788;2023-07-13T00:34:39;7.50;;;2.27;;
11008;SDS011;5557;51.670;7.788;2023-07-13T00:37:07;5.23;;;2.27;;
11008;SDS011;5557;51.670;7.788;2023-07-13T00:39:36;3.40;;;2.03;;
11008;SDS011;5557;51.670;7.788;2023-07-13T00:42:04;6.40;;;2.70;;
11008;SDS011;5557;51.670;7.788;2023-07-13T00:44:32;8.03;;;3.10;;
11008;SDS011;5557;51.670;7.788;2023-07-13T00:47:00;4.37;;;2.37;;
11008;SDS011;5557;51.670;7.788;2023-07-13T00:49:29;8.83;;;2.80;;
11008;SDS011;5557;51.670;7.788;2023-07-13T00:52:09;3.40;;;2.93;;
11008;SDS011;5557;51.670;7.788;2023-07-13T00:54:40;5.73;;;2.40;;
11008;SDS011;5557;51.670;7.788;2023-07-13T00:57:14;7.43;;;2.80;;
11008;SDS011;5557;51.670;7.788;2023-07-13T00:59:48;3.87;;;2.77;;
11008;SDS011;5557;51.670;7.788;2023-07-13T01:02:25;3.77;;;2.80;;
11008;SDS011;5557;51.670;7.788;2023-07-13T01:04:56;10.40;;;2.50;;
11008;SDS011;5557;51.670;7.788;2023-07-13T01:07:24;8.27;;;2.97;;
11008;SDS011;5557;51.670;7.788;2023-07-13T01:09:51;7.80;;;2.47;;
11008;SDS011;5557;51.670;7.788;2023-07-13T01:12:19;4.80;;;2.77;;
11008;SDS011;5557;51.670;7.788;2023-07-13T01:14:46;6.43;;;2.40;;
11008;SDS011;5557;51.670;7.788;2023-07-13T01:17:14;6.93;;;3.00;;
11008;SDS011;5557;51.670;7.788;2023-07-13T01:19:43;8.27;;;3.23;;
11008;SDS011;5557;51.670;7.788;2023-07-13T01:22:13;5.90;;;2.73;;
11008;SDS011;5557;51.670;7.788;2023-07-13T01:24:45;4.33;;;2.47;;
11008;SDS011;5557;51.670;7.788;2023-07-13T01:27:15;8.93;;;2.90;;
11008;SDS011;5557;51.670;7.788;2023-07-13T01:29:44;8.20;;;2.70;;
11008;SDS011;5557;51.670;7.788;2023-07-13T01:32:16;5.57;;;2.63;;
11008;SDS011;5557;51.670;7.788;2023-07-13T01:34:51;10.93;;;2.87;;
11008;SDS011;5557;51.670;7.788;2023-07-13T01:37:21;3.73;;;3.27;;
11008;SDS011;5557;51.670;7.788;2023-07-13T01:39:51;4.93;;;3.00;;
11008;SDS011;5557;51.670;7.788;2023-07-13T01:42:19;5.50;;;2.60;;
11008;SDS011;5557;51.670;7.788;2023-07-13T01:44:49;9.20;;;2.67;;
11008;SDS011;5557;51.670;7.788;2023-07-13T01:47:16;4.80;;;2.40;;
11008;SDS011;5557;51.670;7.788;2023-07-13T01:49:45;4.73;;;2.63;;
11008;SDS011;5557;51.670;7.788;2023-07-13T01:52:15;5.70;;;2.30;;
11008;SDS011;5557;51.670;7.788;2023-07-13T01:54:44;4.80;;;2.47;;
11008;SDS011;5557;51.670;7.788;2023-07-13T01:57:12;4.13;;;2.50;;
11008;SDS011;5557;51.670;7.788;2023-07-13T01:59:42;7.70;;;2.97;;
11008;SDS011;5557;51.670;7.788;2023-07-13T02:02:11;2.27;;;2.07;;
11008;SDS011;5557;51.670;7.788;2023-07-13T02:04:38;7.90;;;2.77;;
11008;SDS011;5557;51.670;7.788;2023-07-13T02:07:07;7.00;;;2.20;;
11008;SDS011;5557;51.670;7.788;2023-07-13T02:09:36;7.07;;;2.40;;
11008;SDS011;5557;51.670;7.788;2023-07-13T02:12:04;12.67;;;2.97;;
11008;SDS011;5557;51.670;7.788;2023-07-13T02:14:32;9.10;;;1.90;;
11008;SDS011;5557;51.670;7.788;2023-07-13T02:17:00;4.43;;;2.30;;
11008;SDS011;5557;51.670;7.788;2023-07-13T02:19:28;7.10;;;1.77;;
11008;SDS011;5557;51.670;7.788;2023-07-13T02:21:56;5.93;;;1.90;;
11008;SDS011;5557;51.670;7.788;2023-07-13T02:24:24;5.13;;;1.97;;
11008;SDS011;5557;51.670;7.788;2023-07-13T02:26:51;5.00;;;2.10;;
11008;SDS011;5557;51.670;7.788;2023-07-13T02:29:19;1.60;;;1.47;;
11008;SDS011;5557;51.670;7.788;2023-07-13T02:31:48;3.50;;;1.97;;
11008;SDS011;5557;51.670;7.788;2023-07-13T02:34:16;8.07;;;2.17;;
11008;SDS011;5557;51.670;7.788;2023-07-13T02:36:44;2.83;;;1.70;;
11008;SDS011;5557;51.670;7.788;2023-07-13T02:39:13;5.50;;;1.93;;
11008;SDS011;5557;51.670;7.788;2023-07-13T02:41:41;7.33;;;2.43;;
11008;SDS011;5557;51.670;7.788;2023-07-13T02:44:09;10.03;;;2.17;;
11008;SDS011;5557;51.670;7.788;2023-07-13T02:46:37;4.77;;;2.17;;
11008;SDS011;5557;51.670;7.788;2023-07-13T02:49:05;6.53;;;1.90;;
11008;SDS011;5557;51.670;7.788;2023-07-13T02:51:33;7.80;;;2.13;;
11008;SDS011;5557;51.670;7.788;2023-07-13T02:54:02;6.40;;;1.57;;
11008;SDS011;5557;51.670;7.788;2023-07-13T02:56:31;3.83;;;1.60;;
11008;SDS011;5557;51.670;7.788;2023-07-13T02:59:01;7.00;;;1.97;;
11008;SDS011;5557;51.670;7.788;2023-07-13T03:01:29;7.63;;;1.87;;
11008;SDS011;5557;51.670;7.788;2023-07-13T03:03:56;8.10;;;2.10;;
11008;SDS011;5557;51.670;7.788;2023-07-13T03:06:24;5.13;;;2.07;;
11008;SDS011;5557;51.670;7.788;2023-07-13T03:08:51;4.00;;;1.40;;
11008;SDS011;5557;51.670;7.788;2023-07-13T03:11:20;6.80;;;2.40;;
11008;SDS011;5557;51.670;7.788;2023-07-13T03:13:47;2.37;;;1.90;;
11008;SDS011;5557;51.670;7.788;2023-07-13T03:16:16;8.00;;;2.60;;
11008;SDS011;5557;51.670;7.788;2023-07-13T03:18:45;6.70;;;1.97;;
11008;SDS011;5557;51.670;7.788;2023-07-13T03:21:13;4.13;;;1.87;;
11008;SDS011;5557;51.670;7.788;2023-07-13T03:23:41;5.20;;;1.57;;
11008;SDS011;5557;51.670;7.788;2023-07-13T03:28:39;3.47;;;1.60;;
11008;SDS011;5557;51.670;7.788;2023-07-13T03:31:07;3.83;;;1.67;;
11008;SDS011;5557;51.670;7.788;2023-07-13T03:33:41;5.23;;;1.63;;
11008;SDS011;5557;51.670;7.788;2023-07-13T03:36:10;1.97;;;1.57;;
11008;SDS011;5557;51.670;7.788;2023-07-13T03:38:50;8.43;;;1.57;;
11008;SDS011;5557;51.670;7.788;2023-07-13T03:41:20;10.40;;;1.90;;
11008;SDS011;5557;51.670;7.788;2023-07-13T03:43:49;7.60;;;2.27;;
11008;SDS011;5557;51.670;7.788;2023-07-13T03:46:17;6.60;;;2.00;;
11008;SDS011;5557;51.670;7.788;2023-07-13T03:48:46;4.40;;;1.57;;
11008;SDS011;5557;51.670;7.788;2023-07-13T03:51:14;2.90;;;1.50;;
11008;SDS011;5557;51.670;7.788;2023-07-13T03:53:43;5.20;;;2.03;;
11008;SDS011;5557;51.670;7.788;2023-07-13T03:56:12;3.87;;;1.60;;
11008;SDS011;5557;51.670;7.788;2023-07-13T03:58:42;6.03;;;1.83;;
11008;SDS011;5557;51.670;7.788;2023-07-13T04:01:11;5.03;;;2.00;;
11008;SDS011;5557;51.670;7.788;2023-07-13T04:03:39;5.10;;;1.87;;
11008;SDS011;5557;51.670;7.788;2023-07-13T04:06:16;2.73;;;1.57;;
11008;SDS011;5557;51.670;7.788;2023-07-13T04:08:52;17.57;;;2.50;;
11008;SDS011;5557;51.670;7.788;2023-07-13T04:11:24;4.53;;;1.90;;
11008;SDS011;5557;51.670;7.788;2023-07-13T04:13:54;4.60;;;1.43;;
11008;SDS011;5557;51.670;7.788;2023-07-13T04:16:21;5.47;;;1.67;;
11008;SDS011;5557;51.670;7.788;2023-07-13T04:18:49;6.53;;;1.17;;
11008;SDS011;5557;51.670;7.788;2023-07-13T04:21:21;4.80;;;1.97;;
11008;SDS011;5557;51.670;7.788;2023-07-13T04:23:50;3.10;;;1.40;;
11008;SDS011;5557;51.670;7.788;2023-07-13T04:26:17;4.63;;;1.50;;
11008;SDS011;5557;51.670;7.788;2023-07-13T04:28:48;3.50;;;1.50;;
11008;SDS011;5557;51.670;7.788;2023-07-13T04:31:17;7.33;;;2.00;;
11008;SDS011;5557;51.670;7.788;2023-07-13T04:33:45;6.17;;;1.53;;
11008;SDS011;5557;51.670;7.788;2023-07-13T04:36:14;3.30;;;1.30;;
11008;SDS011;5557;51.670;7.788;2023-07-13T04:38:43;4.83;;;1.20;;
11008;SDS011;5557;51.670;7.788;2023-07-13T04:41:12;2.70;;;1.50;;
11008;SDS011;5557;51.670;7.788;2023-07-13T04:43:42;9.17;;;1.80;;
11008;SDS011;5557;51.670;7.788;2023-07-13T04:46:11;3.93;;;1.30;;
11008;SDS011;5557;51.670;7.788;2023-07-13T04:48:41;4.97;;;1.50;;
11008;SDS011;5557;51.670;7.788;2023-07-13T04:51:08;4.97;;;1.23;;
11008;SDS011;5557;51.670;7.788;2023-07-13T04:53:37;6.47;;;1.60;;
11008;SDS011;5557;51.670;7.788;2023-07-13T04:56:05;2.30;;;1.30;;
11008;SDS011;5557;51.670;7.788;2023-07-13T04:58:32;6.10;;;1.43;;
11008;SDS011;5557;51.670;7.788;2023-07-13T05:01:01;6.10;;;1.30;;
11008;SDS011;5557;51.670;7.788;2023-07-13T05:03:31;4.70;;;1.77;;
11008;SDS011;5557;51.670;7.788;2023-07-13T05:06:00;5.70;;;1.40;;
11008;SDS011;5557;51.670;7.788;2023-07-13T05:08:30;4.23;;;1.60;;
11008;SDS011;5557;51.670;7.788;2023-07-13T05:10:59;3.70;;;1.03;;
11008;SDS011;5557;51.670;7.788;2023-07-13T05:13:28;6.10;;;1.43;;
11008;SDS011;5557;51.670;7.788;2023-07-13T05:15:59;2.37;;;1.10;;
11008;SDS011;5557;51.670;7.788;2023-07-13T05:18:28;6.03;;;2.30;;
11008;SDS011;5557;51.670;7.788;2023-07-13T05:21:02;4.30;;;1.20;;
11008;SDS011;5557;51.670;7.788;2023-07-13T05:23:34;12.93;;;1.47;;
11008;SDS011;5557;51.670;7.788;2023-07-13T05:26:05;4.50;;;1.10;;
11008;SDS011;5557;51.670;7.788;2023-07-13T05:28:36;10.37;;;1.40;;
11008;SDS011;5557;51.670;7.788;2023-07-13T05:31:05;8.23;;;1.83;;
11008;SDS011;5557;51.670;7.788;2023-07-13T05:33:35;3.27;;;1.30;;
11008;SDS011;5557;51.670;7.788;2023-07-13T05:36:04;2.60;;;1.40;;
11008;SDS011;5557;51.670;7.788;2023-07-13T05:38:33;1.90;;;1.40;;
11008;SDS011;5557;51.670;7.788;2023-07-13T05:41:02;5.57;;;1.60;;
11008;SDS011;5557;51.670;7.788;2023-07-13T05:43:32;8.00;;;1.70;;
11008;SDS011;5557;51.670;7.788;2023-07-13T05:46:00;2.17;;;1.13;;
11008;SDS011;5557;51.670;7.788;2023-07-13T05:48:28;7.87;;;1.53;;
11008;SDS011;5557;51.670;7.788;2023-07-13T05:50:55;8.93;;;2.43;;
11008;SDS011;5557;51.670;7.788;2023-07-13T05:53:23;5.43;;;1.60;;
11008;SDS011;5557;51.670;7.788;2023-07-13T05:55:53;3.20;;;1.20;;
11008;SDS011;5557;51.670;7.788;2023-07-13T05:58:21;5.30;;;1.63;;
11008;SDS011;5557;51.670;7.788;2023-07-13T06:00:58;4.93;;;1.40;;
11008;SDS011;5557;51.670;7.788;2023-07-13T06:03:26;2.83;;;1.20;;
11008;SDS011;5557;51.670;7.788;2023-07-13T06:05:53;8.70;;;1.57;;
11008;SDS011;5557;51.670;7.788;2023-07-13T06:08:21;4.23;;;1.43;;
11008;SDS011;5557;51.670;7.788;2023-07-13T06:10:49;4.20;;;1.27;;
11008;SDS011;5557;51.670;7.788;2023-07-13T06:13:18;3.00;;;1.50;;
11008;SDS011;5557;51.670;7.788;2023-07-13T06:15:51;7.40;;;1.50;;
11008;SDS011;5557;51.670;7.788;2023-07-13T06:18:20;6.17;;;1.50;;
11008;SDS011;5557;51.670;7.788;2023-07-13T06:20:48;4.27;;;1.47;;
11008;SDS011;5557;51.670;7.788;2023-07-13T06:23:16;4.43;;;1.20;;
11008;SDS011;5557;51.670;7.788;2023-07-13T06:25:44;11.43;;;2.20;;
11008;SDS011;5557;51.670;7.788;2023-07-13T06:28:12;9.77;;;2.47;;
11008;SDS011;5557;51.670;7.788;2023-07-13T06:30:41;4.50;;;2.20;;
11008;SDS011;5557;51.670;7.788;2023-07-13T06:33:09;3.80;;;2.30;;
11008;SDS011;5557;51.670;7.788;2023-07-13T06:35:40;13.43;;;2.60;;
11008;SDS011;5557;51.670;7.788;2023-07-13T06:38:09;3.70;;;1.57;;
11008;SDS011;5557;51.670;7.788;2023-07-13T06:40:37;3.30;;;1.93;;
11008;SDS011;5557;51.670;7.788;2023-07-13T06:43:04;2.93;;;2.00;;
11008;SDS011;5557;51.670;7.788;2023-07-13T06:45:41;9.13;;;2.10;;
11008;SDS011;5557;51.670;7.788;2023-07-13T06:48:13;4.00;;;1.77;;
11008;SDS011;5557;51.670;7.788;2023-07-13T06:50:43;5.70;;;2.13;;
11008;SDS011;5557;51.670;7.788;2023-07-13T06:53:12;5.13;;;1.77;;
11008;SDS011;5557;51.670;7.788;2023-07-13T06:55:39;7.17;;;1.87;;
11008;SDS011;5557;51.670;7.788;2023-07-13T06:58:11;6.30;;;2.23;;
11008;SDS011;5557;51.670;7.788;2023-07-13T07:00:41;4.73;;;1.57;;
11008;SDS011;5557;51.670;7.788;2023-07-13T07:03:08;9.23;;;1.80;;
11008;SDS011;5557;51.670;7.788;2023-07-13T07:05:36;11.23;;;2.70;;
11008;SDS011;5557;51.670;7.788;2023-07-13T07:08:05;3.00;;;1.20;;
11008;SDS011;5557;51.670;7.788;2023-07-13T07:10:32;6.30;;;1.60;;
11008;SDS011;5557;51.670;7.788;2023-07-13T07:13:02;6.23;;;2.00;;
11008;SDS011;5557;51.670;7.788;2023-07-13T07:15:33;3.23;;;1.90;;
11008;SDS011;5557;51.670;7.788;2023-07-13T07:18:02;12.27;;;2.10;;
11008;SDS011;5557;51.670;7.788;2023-07-13T07:20:30;6.80;;;2.10;;
11008;SDS011;5557;51.670;7.788;2023-07-13T07:22:59;4.70;;;1.53;;
11008;SDS011;5557;51.670;7.788;2023-07-13T07:25:27;6.20;;;1.73;;
11008;SDS011;5557;51.670;7.788;2023-07-13T07:27:59;9.17;;;2.47;;
11008;SDS011;5557;51.670;7.788;2023-07-13T07:30:29;6.50;;;2.03;;
11008;SDS011;5557;51.670;7.788;2023-07-13T07:33:00;3.97;;;2.07;;
11008;SDS011;5557;51.670;7.788;2023-07-13T07:35:31;2.37;;;1.60;;
11008;SDS011;5557;51.670;7.788;2023-07-13T07:38:04;3.00;;;1.47;;
11008;SDS011;5557;51.670;7.788;2023-07-13T07:40:36;5.13;;;1.40;;
11008;SDS011;5557;51.670;7.788;2023-07-13T07:43:09;11.80;;;1.67;;
11008;SDS011;5557;51.670;7.788;2023-07-13T07:45:39;7.97;;;1.90;;
11008;SDS011;5557;51.670;7.788;2023-07-13T07:48:07;6.63;;;1.60;;
11008;SDS011;5557;51.670;7.788;2023-07-13T07:50:36;4.65;;;1.67;;
11008;SDS011;5557;51.670;7.788;2023-07-13T07:53:06;8.10;;;2.30;;
11008;SDS011;5557;51.670;7.788;2023-07-13T07:55:34;5.10;;;2.20;;
11008;SDS011;5557;51.670;7.788;2023-07-13T07:58:04;3.50;;;1.50;;
11008;SDS011;5557;51.670;7.788;2023-07-13T08:00:53;3.20;;;1.50;;
11008;SDS011;5557;51.670;7.788;2023-07-13T08:03:25;8.57;;;1.50;;
11008;SDS011;5557;51.670;7.788;2023-07-13T08:05:55;5.10;;;1.70;;
11008;SDS011;5557;51.670;7.788;2023-07-13T08:08:44;2.90;;;1.50;;
11008;SDS011;5557;51.670;7.788;2023-07-13T08:11:12;5.10;;;1.73;;
11008;SDS011;5557;51.670;7.788;2023-07-13T08:13:43;3.17;;;1.60;;
11008;SDS011;5557;51.670;7.788;2023-07-13T08:16:11;5.78;;;1.65;;
11008;SDS011;5557;51.670;7.788;2023-07-13T08:18:38;2.67;;;1.50;;
11008;SDS011;5557;51.670;7.788;2023-07-13T08:21:08;4.90;;;1.20;;
11008;SDS011;5557;51.670;7.788;2023-07-13T08:23:36;14.90;;;4.45;;
11008;SDS011;5557;51.670;7.788;2023-07-13T08:26:04;6.10;;;1.95;;
11008;SDS011;5557;51.670;7.788;2023-07-13T08:28:33;5.78;;;1.80;;
11008;SDS011;5557;51.670;7.788;2023-07-13T08:31:04;3.58;;;1.63;;
11008;SDS011;5557;51.670;7.788;2023-07-13T08:33:35;2.33;;;1.50;;
11008;SDS011;5557;51.670;7.788;2023-07-13T08:36:05;3.08;;;1.27;;
11008;SDS011;5557;51.670;7.788;2023-07-13T08:38:34;5.05;;;1.85;;
11008;SDS011;5557;51.670;7.788;2023-07-13T08:41:03;10.20;;;2.10;;
11008;SDS011;5557;51.670;7.788;2023-07-13T08:43:38;4.90;;;1.97;;
11008;SDS011;5557;51.670;7.788;2023-07-13T08:46:19;3.03;;;2.10;;
11008;SDS011;5557;51.670;7.788;2023-07-13T08:49:04;5.37;;;2.10;;
11008;SDS011;5557;51.670;7.788;2023-07-13T08:55:01;6.93;;;1.70;;
11008;SDS011;5557;51.670;7.788;2023-07-13T08:57:48;3.00;;;1.70;;
11008;SDS011;5557;51.670;7.788;2023-07-13T09:00:20;2.70;;;1.03;;
11008;SDS011;5557;51.670;7.788;2023-07-13T09:02:52;3.30;;;1.47;;
11008;SDS011;5557;51.670;7.788;2023-07-13T09:05:30;3.10;;;1.47;;
11008;SDS011;5557;51.670;7.788;2023-07-13T09:16:20;6.07;;;1.20;;
11008;SDS011;5557;51.670;7.788;2023-07-13T09:18:49;5.20;;;1.30;;
11008;SDS011;5557;51.670;7.788;2023-07-13T09:21:23;4.25;;;1.73;;
11008;SDS011;5557;51.670;7.788;2023-07-13T09:23:56;1.95;;;1.30;;
11008;SDS011;5557;51.670;7.788;2023-07-13T09:26:49;1.45;;;1.00;;
11008;SDS011;5557;51.670;7.788;2023-07-13T09:29:37;5.82;;;1.17;;
11008;SDS011;5557;51.670;7.788;2023-07-13T09:32:06;1.80;;;1.05;;
11008;SDS011;5557;51.670;7.788;2023-07-13T09:34:39;2.13;;;0.93;;
11008;SDS011;5557;51.670;7.788;2023-07-13T09:37:06;2.10;;;1.33;;
11008;SDS011;5557;51.670;7.788;2023-07-13T09:39:35;2.65;;;1.20;;
11008;SDS011;5557;51.670;7.788;2023-07-13T09:42:07;3.47;;;1.02;;
11008;SDS011;5557;51.670;7.788;2023-07-13T09:44:55;1.58;;;1.17;;
11008;SDS011;5557;51.670;7.788;2023-07-13T09:47:26;2.95;;;1.15;;
11008;SDS011;5557;51.670;7.788;2023-07-13T09:49:57;5.00;;;1.23;;
11008;SDS011;5557;51.670;7.788;2023-07-13T09:52:43;4.57;;;1.33;;
11008;SDS011;5557;51.670;7.788;2023-07-13T10:00:41;13.15;;;1.30;;
11008;SDS011;5557;51.670;7.788;2023-07-13T10:03:15;2.22;;;1.27;;
11008;SDS011;5557;51.670;7.788;2023-07-13T10:05:45;1.50;;;1.30;;
11008;SDS011;5557;51.670;7.788;2023-07-13T10:08:29;3.20;;;1.20;;
11008;SDS011;5557;51.670;7.788;2023-07-13T10:11:09;6.70;;;1.40;;
11008;SDS011;5557;51.670;7.788;2023-07-13T10:13:40;2.37;;;1.67;;
11008;SDS011;5557;51.670;7.788;2023-07-13T10:16:10;2.30;;;1.37;;
11008;SDS011;5557;51.670;7.788;2023-07-13T10:18:45;3.67;;;1.60;;
11008;SDS011;5557;51.670;7.788;2023-07-13T10:21:19;5.70;;;1.60;;
11008;SDS011;5557;51.670;7.788;2023-07-13T10:23:54;4.50;;;1.43;;
11008;SDS011;5557;51.670;7.788;2023-07-13T10:26:29;5.30;;;2.10;;
11008;SDS011;5557;51.670;7.788;2023-07-13T10:29:01;2.93;;;1.37;;
11008;SDS011;5557;51.670;7.788;2023-07-13T10:31:33;2.30;;;1.10;;
11008;SDS011;5557;51.670;7.788;2023-07-13T10:34:03;3.27;;;1.33;;
11008;SDS011;5557;51.670;7.788;2023-07-13T10:36:45;9.53;;;1.97;;
11008;SDS011;5557;51.670;7.788;2023-07-13T10:39:23;3.90;;;1.70;;
11008;SDS011;5557;51.670;7.788;2023-07-13T10:41:54;3.33;;;1.40;;
11008;SDS011;5557;51.670;7.788;2023-07-13T10:44:26;12.50;;;1.77;;
11008;SDS011;5557;51.670;7.788;2023-07-13T10:46:56;2.90;;;1.97;;
11008;SDS011;5557;51.670;7.788;2023-07-13T10:49:30;2.70;;;1.97;;
11008;SDS011;5557;51.670;7.788;2023-07-13T10:51:58;3.17;;;1.40;;
11008;SDS011;5557;51.670;7.788;2023-07-13T10:54:35;5.00;;;1.43;;
11008;SDS011;5557;51.670;7.788;2023-07-13T10:57:16;2.47;;;1.50;;
11008;SDS011;5557;51.670;7.788;2023-07-13T11:00:10;3.30;;;1.60;;
11008;SDS011;5557;51.670;7.788;2023-07-13T11:02:42;3.87;;;2.80;;
11008;SDS011;5557;51.670;7.788;2023-07-13T11:05:17;4.50;;;2.07;;
11008;SDS011;5557;51.670;7.788;2023-07-13T11:08:02;2.10;;;1.63;;
11008;SDS011;5557;51.670;7.788;2023-07-13T11:10:48;2.60;;;1.73;;
11008;SDS011;5557;51.670;7.788;2023-07-13T11:16:44;2.00;;;1.80;;
11008;SDS011;5557;51.670;7.788;2023-07-13T11:22:11;3.63;;;1.77;;
11008;SDS011;5557;51.670;7.788;2023-07-13T11:28:13;12.93;;;1.90;;
11008;SDS011;5557;51.670;7.788;2023-07-13T11:36:30;2.07;;;1.73;;
11008;SDS011;5557;51.670;7.788;2023-07-13T11:39:25;4.67;;;2.30;;
11008;SDS011;5557;51.670;7.788;2023-07-13T11:41:57;2.23;;;1.73;;
11008;SDS011;5557;51.670;7.788;2023-07-13T11:44:33;7.30;;;3.37;;
11008;SDS011;5557;51.670;7.788;2023-07-13T11:47:08;8.50;;;2.50;;
11008;SDS011;5557;51.670;7.788;2023-07-13T11:49:44;4.50;;;1.93;;
11008;SDS011;5557;51.670;7.788;2023-07-13T11:52:14;2.30;;;2.10;;
11008;SDS011;5557;51.670;7.788;2023-07-13T11:54:56;5.33;;;1.90;;
11008;SDS011;5557;51.670;7.788;2023-07-13T11:57:30;4.17;;;2.10;;
11008;SDS011;5557;51.670;7.788;2023-07-13T12:00:02;8.63;;;2.07;;
11008;SDS011;5557;51.670;7.788;2023-07-13T12:02:39;2.83;;;1.43;;
11008;SDS011;5557;51.670;7.788;2023-07-13T12:05:13;3.20;;;1.60;;
11008;SDS011;5557;51.670;7.788;2023-07-13T12:07:43;3.10;;;1.57;;
11008;SDS011;5557;51.670;7.788;2023-07-13T12:10:27;7.93;;;1.67;;
11008;SDS011;5557;51.670;7.788;2023-07-13T12:12:57;6.40;;;1.77;;
11008;SDS011;5557;51.670;7.788;2023-07-13T12:15:39;4.20;;;1.80;;
11008;SDS011;5557;51.670;7.788;2023-07-13T12:18:12;7.03;;;2.60;;
11008;SDS011;5557;51.670;7.788;2023-07-13T12:20:41;2.83;;;1.53;;
11008;SDS011;5557;51.670;7.788;2023-07-13T12:23:52;8.63;;;1.47;;
11008;SDS011;5557;51.670;7.788;2023-07-13T12:26:03;5.53;;;1.93;;
11008;SDS011;5557;51.670;7.788;2023-07-13T12:28:53;4.13;;;1.80;;
11008;SDS011;5557;51.670;7.788;2023-07-13T12:34:17;2.83;;;1.67;;
11008;SDS011;5557;51.670;7.788;2023-07-13T12:36:48;3.13;;;1.60;;
11008;SDS011;5557;51.670;7.788;2023-07-13T12:39:32;3.30;;;1.83;;
11008;SDS011;5557;51.670;7.788;2023-07-13T12:42:18;7.90;;;1.93;;
11008;SDS011;5557;51.670;7.788;2023-07-13T12:44:56;2.70;;;1.30;;
11008;SDS011;5557;51.670;7.788;2023-07-13T12:47:28;6.13;;;2.03;;
11008;SDS011;5557;51.670;7.788;2023-07-13T12:49:59;2.63;;;1.40;;
11008;SDS011;5557;51.670;7.788;2023-07-13T12:52:33;3.10;;;1.50;;
11008;SDS011;5557;51.670;7.788;2023-07-13T12:55:05;2.70;;;1.50;;
11008;SDS011;5557;51.670;7.788;2023-07-13T12:57:41;10.93;;;2.40;;
11008;SDS011;5557;51.670;7.788;2023-07-13T13:00:25;3.97;;;1.40;;
11008;SDS011;5557;51.670;7.788;2023-07-13T13:03:23;5.93;;;1.20;;
11008;SDS011;5557;51.670;7.788;2023-07-13T13:08:52;3.50;;;1.20;;
11008;SDS011;5557;51.670;7.788;2023-07-13T13:11:21;5.40;;;1.80;;
11008;SDS011;5557;51.670;7.788;2023-07-13T13:13:49;2.13;;;1.40;;
11008;SDS011;5557;51.670;7.788;2023-07-13T13:16:26;1.60;;;1.50;;
11008;SDS011;5557;51.670;7.788;2023-07-13T13:19:05;2.13;;;1.40;;
11008;SDS011;5557;51.670;7.788;2023-07-13T13:21:42;2.43;;;1.40;;
11008;SDS011;5557;51.670;7.788;2023-07-13T13:24:14;5.20;;;2.03;;
11008;SDS011;5557;51.670;7.788;2023-07-13T13:26:43;1.70;;;1.40;;
11008;SDS011;5557;51.670;7.788;2023-07-13T13:29:14;2.73;;;1.60;;
11008;SDS011;5557;51.670;7.788;2023-07-13T13:31:44;3.97;;;1.60;;
11008;SDS011;5557;51.670;7.788;2023-07-13T13:34:15;9.30;;;1.67;;
11008;SDS011;5557;51.670;7.788;2023-07-13T13:36:44;9.00;;;1.37;;
11008;SDS011;5557;51.670;7.788;2023-07-13T13:41:52;4.33;;;1.80;;
11008;SDS011;5557;51.670;7.788;2023-07-13T13:44:20;3.77;;;1.83;;
11008;SDS011;5557;51.670;7.788;2023-07-13T13:46:48;5.37;;;2.00;;
11008;SDS011;5557;51.670;7.788;2023-07-13T13:49:22;4.80;;;1.47;;
11008;SDS011;5557;51.670;7.788;2023-07-13T13:51:51;1.90;;;1.30;;
11008;SDS011;5557;51.670;7.788;2023-07-13T13:54:19;2.00;;;1.47;;
11008;SDS011;5557;51.670;7.788;2023-07-13T13:56:48;18.40;;;2.80;;
11008;SDS011;5557;51.670;7.788;2023-07-13T13:59:16;10.40;;;2.60;;
11008;SDS011;5557;51.670;7.788;2023-07-13T14:01:45;9.00;;;3.50;;
11008;SDS011;5557;51.670;7.788;2023-07-13T14:04:18;5.07;;;3.40;;
11008;SDS011;5557;51.670;7.788;2023-07-13T14:06:47;10.53;;;4.00;;
11008;SDS011;5557;51.670;7.788;2023-07-13T14:09:16;7.37;;;3.80;;
11008;SDS011;5557;51.670;7.788;2023-07-13T14:11:45;7.67;;;4.80;;
11008;SDS011;5557;51.670;7.788;2023-07-13T14:14:17;7.60;;;4.53;;
11008;SDS011;5557;51.670;7.788;2023-07-13T14:16:47;5.17;;;4.03;;
11008;SDS011;5557;51.670;7.788;2023-07-13T14:19:20;4.70;;;4.40;;
11008;SDS011;5557;51.670;7.788;2023-07-13T14:21:48;8.67;;;4.43;;
11008;SDS011;5557;51.670;7.788;2023-07-13T14:24:16;6.83;;;3.87;;
11008;SDS011;5557;51.670;7.788;2023-07-13T14:26:45;5.23;;;3.80;;
11008;SDS011;5557;51.670;7.788;2023-07-13T14:29:13;4.47;;;3.67;;
11008;SDS011;5557;51.670;7.788;2023-07-13T14:31:50;5.60;;;4.17;;
11008;SDS011;5557;51.670;7.788;2023-07-13T14:34:18;4.60;;;4.20;;
11008;SDS011;5557;51.670;7.788;2023-07-13T14:36:46;6.03;;;4.03;;
11008;SDS011;5557;51.670;7.788;2023-07-13T14:39:17;4.67;;;4.20;;
11008;SDS011;5557;51.670;7.788;2023-07-13T14:41:49;4.27;;;3.97;;
11008;SDS011;5557;51.670;7.788;2023-07-13T14:44:20;6.20;;;4.70;;
11008;SDS011;5557;51.670;7.788;2023-07-13T14:46:50;4.60;;;4.30;;
11008;SDS011;5557;51.670;7.788;2023-07-13T14:51:55;4.50;;;4.07;;
11008;SDS011;5557;51.670;7.788;2023-07-13T14:54:24;4.00;;;3.70;;
11008;SDS011;5557;51.670;7.788;2023-07-13T14:56:52;7.37;;;6.50;;
11008;SDS011;5557;51.670;7.788;2023-07-13T14:59:19;3.40;;;3.30;;
11008;SDS011;5557;51.670;7.788;2023-07-13T15:01:47;5.40;;;3.40;;
11008;SDS011;5557;51.670;7.788;2023-07-13T15:04:16;4.10;;;3.90;;
11008;SDS011;5557;51.670;7.788;2023-07-13T15:06:57;4.17;;;3.83;;
11008;SDS011;5557;51.670;7.788;2023-07-13T15:09:26;5.40;;;3.90;;
11008;SDS011;5557;51.670;7.788;2023-07-13T15:11:55;4.30;;;4.00;;
11008;SDS011;5557;51.670;7.788;2023-07-13T15:14:23;3.57;;;3.30;;
11008;SDS011;5557;51.670;7.788;2023-07-13T15:16:52;4.33;;;3.63;;
11008;SDS011;5557;51.670;7.788;2023-07-13T15:19:21;2.90;;;2.70;;
11008;SDS011;5557;51.670;7.788;2023-07-13T15:21:49;3.20;;;3.00;;
11008;SDS011;5557;51.670;7.788;2023-07-13T15:24:18;3.43;;;3.23;;
11008;SDS011;5557;51.670;7.788;2023-07-13T15:26:47;5.37;;;4.57;;
11008;SDS011;5557;51.670;7.788;2023-07-13T15:29:15;4.47;;;4.07;;
11008;SDS011;5557;51.670;7.788;2023-07-13T15:31:43;4.70;;;3.60;;
11008;SDS011;5557;51.670;7.788;2023-07-13T15:34:16;5.70;;;3.80;;
11008;SDS011;5557;51.670;7.788;2023-07-13T15:36:51;3.60;;;3.40;;
11008;SDS011;5557;51.670;7.788;2023-07-13T15:39:18;6.40;;;3.83;;
11008;SDS011;5557;51.670;7.788;2023-07-13T15:41:45;3.57;;;3.37;;
11008;SDS011;5557;51.670;7.788;2023-07-13T15:44:24;4.47;;;4.17;;
11008;SDS011;5557;51.670;7.788;2023-07-13T15:46:56;3.70;;;3.40;;
11008;SDS011;5557;51.670;7.788;2023-07-13T15:49:26;5.83;;;4.00;;
11008;SDS011;5557;51.670;7.788;2023-07-13T15:51:53;4.63;;;3.40;;
11008;SDS011;5557;51.670;7.788;2023-07-13T15:54:21;5.63;;;4.67;;
11008;SDS011;5557;51.670;7.788;2023-07-13T15:56:54;5.73;;;4.43;;
11008;SDS011;5557;51.670;7.788;2023-07-13T15:59:26;4.47;;;4.07;;
11008;SDS011;5557;51.670;7.788;2023-07-13T16:01:54;6.33;;;3.47;;
11008;SDS011;5557;51.670;7.788;2023-07-13T16:04:21;5.87;;;3.90;;
11008;SDS011;5557;51.670;7.788;2023-07-13T16:06:48;4.50;;;3.60;;
11008;SDS011;5557;51.670;7.788;2023-07-13T16:09:21;6.13;;;3.60;;
11008;SDS011;5557;51.670;7.788;2023-07-13T16:11:49;4.57;;;3.33;;